This is the latest recevied weather packets stored in our database for station/object AD0YN. If no packets are shown the sender has not sent any weather packets the latest 10 day(s).
| Time | Temp. | Humidity | Pressure | Rain* | Wind** | Luminosity | Snow |
|---|---|---|---|---|---|---|---|
| 1778117457 | 10° C | 47% | 1016.5 hPa | 0 mm | - | 0 W/m² | - |
| 1778117154 | 10° C | 44% | 1016.4 hPa | 0 mm | - | 1 W/m² | - |
| 1778116850 | 10.56° C | 41% | 1016.2 hPa | 0 mm | - | 1 W/m² | - |
| 1778116548 | 11.11° C | 40% | 1016.4 hPa | 0 mm | - | 3 W/m² | - |
| 1778116244 | 11.67° C | 38% | 1016.5 hPa | 0 mm | - | 5 W/m² | - |
| 1778115938 | 12.22° C | 38% | 1016.3 hPa | 0 mm | - | 7 W/m² | - |
| 1778115635 | 12.78° C | 37% | 1016.3 hPa | 0 mm | - | 11 W/m² | - |
| 1778115333 | 13.33° C | 36% | 1016.6 hPa | 0 mm | - | 15 W/m² | - |
| 1778115029 | 13.89° C | 35% | 1016.4 hPa | 0 mm | - | 20 W/m² | - |
| 1778114726 | 14.44° C | 33% | 1016.5 hPa | 0 mm | - | 25 W/m² | - |
| 1778114423 | 14.44° C | 33% | 1016.5 hPa | 0 mm | - | 30 W/m² | - |
| 1778114119 | 14.44° C | 33% | 1016.5 hPa | 0 mm | - | 35 W/m² | - |
| 1778113814 | 15° C | 33% | 1016.4 hPa | 0 mm | - | 40 W/m² | - |
| 1778113511 | 15° C | 32% | 1016.4 hPa | 0 mm | - | 47 W/m² | - |
| 1778113207 | 15° C | 31% | 1016.3 hPa | 0 mm | - | 56 W/m² | - |
| 1778112903 | 15° C | 31% | 1016.4 hPa | 0 mm | - | 66 W/m² | - |
| 1778112601 | 15° C | 30% | 1016.2 hPa | 0 mm | - | 79 W/m² | - |
| 1778112297 | 15° C | 30% | 1016.3 hPa | 0 mm | - | 90 W/m² | - |
| 1778111992 | 15.56° C | 30% | 1016.5 hPa | 0 mm | - | 104 W/m² | - |
| 1778111690 | 15.56° C | 32% | 1016.2 hPa | 0 mm | - | 117 W/m² | - |
| 1778111386 | 15.56° C | 30% | 1016.2 hPa | 0 mm | - | 130 W/m² | - |
| 1778111083 | 15.56° C | 31% | 1016.3 hPa | 0 mm | - | 146 W/m² | - |
| 1778110781 | 15° C | 33% | 1016.1 hPa | 0 mm | - | 163 W/m² | - |
| 1778110477 | 15.56° C | 32% | 1016.5 hPa | 0 mm | - | 179 W/m² | - |
| 1778110174 | 15.56° C | 31% | 1016 hPa | 0 mm | - | 192 W/m² | - |
* Rain latest hour (hover to see other rain measurements)
** Current wind speed in m/s (hover to see current wind gust speed)